Time;durP1;ratioP1;P1;durP2;ratioP2;P2;SDS_P1;SDS_P2;PMS_P1;PMS_P2;Temp;Humidity;BMP_temperature;BMP_pressure;BME280_temperature;BME280_humidity;BME280_pressure;Samples;Min_cycle;Max_cycle;Signal;HPM_P1;HPM_P2
2022/03/24 00:01:32;;;;;;;18.40;12.53;;;;;;;;;;5046954;28;20230;-82
2022/03/24 00:03:59;;;;;;;16.57;11.10;;;;;;;;;;5040531;28;20227;-82
2022/03/24 00:06:26;;;;;;;16.27;10.63;;;;;;;;;;5043011;28;20253;-82
2022/03/24 00:08:53;;;;;;;16.00;11.07;;;;;;;;;;5027293;28;20207;-81
2022/03/24 00:11:21;;;;;;;16.47;11.70;;;;;;;;;;5035394;28;20228;-83
2022/03/24 00:13:49;;;;;;;18.47;11.63;;;;;;;;;;5044296;28;20326;-81
2022/03/24 00:16:17;;;;;;;17.77;11.80;;;;;;;;;;5044171;28;20236;-80
2022/03/24 00:18:46;;;;;;;14.70;11.07;;;;;;;;;;5042391;28;20277;-81
2022/03/24 00:21:13;;;;;;;19.13;11.53;;;;;;;;;;5046766;28;20329;-82
2022/03/24 00:23:40;;;;;;;18.40;11.43;;;;;;;;;;5047822;28;20211;-81
2022/03/24 00:26:07;;;;;;;15.90;11.50;;;;;;;;;;5050836;28;20300;-81
2022/03/24 00:28:34;;;;;;;15.80;10.60;;;;;;;;;;5051069;28;20227;-81
2022/03/24 00:31:01;;;;;;;17.67;10.80;;;;;;;;;;5049851;28;20237;-81
2022/03/24 00:33:28;;;;;;;19.27;12.17;;;;;;;;;;5043064;28;20204;-81
2022/03/24 00:35:57;;;;;;;16.50;11.43;;;;;;;;;;5050350;28;20248;-81
2022/03/24 00:38:24;;;;;;;15.63;11.33;;;;;;;;;;5031146;28;20224;-82
2022/03/24 00:40:52;;;;;;;18.53;12.37;;;;;;;;;;5030032;28;20253;-82
2022/03/24 00:43:19;;;;;;;17.43;11.90;;;;;;;;;;5029845;28;20204;-81
2022/03/24 00:45:46;;;;;;;17.30;12.30;;;;;;;;;;5029824;28;20262;-82
2022/03/24 00:48:13;;;;;;;19.73;12.63;;;;;;;;;;5029830;28;20214;-82
2022/03/24 00:50:43;;;;;;;18.83;12.43;;;;;;;;;;5030939;28;20236;-83
2022/03/24 00:53:12;;;;;;;18.10;12.70;;;;;;;;;;5030617;28;20213;-82
2022/03/24 00:55:41;;;;;;;20.03;11.93;;;;;;;;;;5030351;28;20233;-81
2022/03/24 00:58:08;;;;;;;21.83;12.27;;;;;;;;;;5030738;28;20207;-81
2022/03/24 01:00:36;;;;;;;17.67;12.63;;;;;;;;;;5029606;28;20248;-82
2022/03/24 01:03:06;;;;;;;17.00;12.57;;;;;;;;;;5041567;28;20582;-82
2022/03/24 01:05:37;;;;;;;15.47;11.73;;;;;;;;;;5049230;28;20266;-82
2022/03/24 01:08:05;;;;;;;21.20;12.17;;;;;;;;;;5050283;28;20202;-82
2022/03/24 01:10:34;;;;;;;17.17;12.60;;;;;;;;;;5049240;28;20242;-81
2022/03/24 01:13:01;;;;;;;18.10;12.70;;;;;;;;;;5049241;28;20290;-82
2022/03/24 01:15:30;;;;;;;17.60;13.17;;;;;;;;;;5049210;28;20238;-83
2022/03/24 01:17:59;;;;;;;22.43;12.43;;;;;;;;;;5048368;28;20215;-81
2022/03/24 01:20:26;;;;;;;16.77;11.37;;;;;;;;;;5049291;28;20243;-81
2022/03/24 01:22:53;;;;;;;18.90;11.90;;;;;;;;;;5049177;28;20209;-82
2022/03/24 01:25:20;;;;;;;16.27;12.07;;;;;;;;;;5049141;28;20229;-82
2022/03/24 01:27:48;;;;;;;18.40;11.57;;;;;;;;;;5049071;28;20691;-81
2022/03/24 01:30:16;;;;;;;17.93;12.60;;;;;;;;;;5048619;28;20347;-82
2022/03/24 01:32:44;;;;;;;16.47;12.43;;;;;;;;;;5048903;28;20237;-82
2022/03/24 01:35:11;;;;;;;22.97;12.50;;;;;;;;;;5048089;28;20227;-82
2022/03/24 01:37:40;;;;;;;15.77;11.73;;;;;;;;;;5050804;28;20199;-82
2022/03/24 01:40:09;;;;;;;19.33;12.80;;;;;;;;;;5049094;28;20233;-81
2022/03/24 01:42:37;;;;;;;20.07;12.13;;;;;;;;;;5049831;28;20214;-81
2022/03/24 01:45:06;;;;;;;13.37;10.60;;;;;;;;;;5049580;28;20241;-81
2022/03/24 01:47:34;;;;;;;21.83;12.37;;;;;;;;;;5049649;28;20222;-82
2022/03/24 01:50:01;;;;;;;17.67;12.07;;;;;;;;;;5049671;28;20203;-82
2022/03/24 01:52:29;;;;;;;21.07;12.30;;;;;;;;;;5048735;28;20230;-81
2022/03/24 01:54:57;;;;;;;16.43;12.27;;;;;;;;;;5049008;28;20257;-81
2022/03/24 01:57:25;;;;;;;15.73;11.70;;;;;;;;;;5048161;28;20234;-81
2022/03/24 01:59:52;;;;;;;18.40;12.93;;;;;;;;;;5048831;28;20214;-81
2022/03/24 02:02:21;;;;;;;21.80;11.90;;;;;;;;;;5048156;28;20306;-82
2022/03/24 02:04:48;;;;;;;21.10;10.90;;;;;;;;;;5043401;28;20230;-82
2022/03/24 02:07:15;;;;;;;16.13;11.27;;;;;;;;;;5036283;28;20234;-83
2022/03/24 02:09:42;;;;;;;16.63;11.40;;;;;;;;;;5046560;28;20252;-81
2022/03/24 02:12:11;;;;;;;16.53;12.30;;;;;;;;;;5047535;28;20318;-82
2022/03/24 02:14:39;;;;;;;15.83;10.67;;;;;;;;;;5048293;28;20233;-82
2022/03/24 02:17:06;;;;;;;20.50;11.53;;;;;;;;;;5047245;28;20234;-83
2022/03/24 02:19:36;;;;;;;17.70;10.40;;;;;;;;;;5048818;28;20211;-82
2022/03/24 02:22:09;;;;;;;13.93;10.67;;;;;;;;;;5046602;28;20231;-82
2022/03/24 02:24:37;;;;;;;14.97;11.43;;;;;;;;;;5048861;28;20257;-82
2022/03/24 02:27:04;;;;;;;16.83;11.40;;;;;;;;;;5047246;28;20258;-82
2022/03/24 02:29:31;;;;;;;17.20;10.77;;;;;;;;;;5047880;28;20238;-82
2022/03/24 02:31:58;;;;;;;19.03;11.40;;;;;;;;;;5046640;28;20244;-82
2022/03/24 02:37:19;;;;;;;18.00;11.93;;;;;;;;;;5032775;28;20256;-82
2022/03/24 02:39:46;;;;;;;15.53;11.80;;;;;;;;;;5048981;28;20207;-82
2022/03/24 02:42:15;;;;;;;17.47;10.67;;;;;;;;;;5048119;28;20243;-81
2022/03/24 02:44:43;;;;;;;16.70;11.07;;;;;;;;;;5048560;28;20241;-81
2022/03/24 02:47:11;;;;;;;18.63;11.63;;;;;;;;;;5047414;28;20257;-81
2022/03/24 02:49:38;;;;;;;22.47;11.80;;;;;;;;;;5049008;28;20217;-81
2022/03/24 02:52:06;;;;;;;16.80;11.07;;;;;;;;;;5048674;28;20238;-81
2022/03/24 02:54:35;;;;;;;17.00;11.73;;;;;;;;;;5049116;28;20242;-81
2022/03/24 02:57:02;;;;;;;18.13;11.67;;;;;;;;;;5047473;28;20287;-81
2022/03/24 02:59:29;;;;;;;17.60;11.73;;;;;;;;;;5048304;28;20214;-82
2022/03/24 03:01:57;;;;;;;15.77;10.87;;;;;;;;;;5047520;28;20239;-81
2022/03/24 03:04:24;;;;;;;20.50;12.13;;;;;;;;;;5048585;28;20227;-81
2022/03/24 03:06:54;;;;;;;18.03;11.07;;;;;;;;;;5046278;28;20242;-82
2022/03/24 03:09:21;;;;;;;17.00;11.93;;;;;;;;;;5048451;28;20300;-81
2022/03/24 03:11:52;;;;;;;18.57;12.03;;;;;;;;;;5047160;28;20245;-81
2022/03/24 03:14:20;;;;;;;18.77;11.63;;;;;;;;;;5047398;28;20243;-81
2022/03/24 03:16:47;;;;;;;15.90;11.07;;;;;;;;;;5047464;28;20244;-82
2022/03/24 03:19:15;;;;;;;16.77;11.40;;;;;;;;;;5047873;28;20206;-82
2022/03/24 03:21:42;;;;;;;14.47;10.97;;;;;;;;;;5047534;28;20304;-82
2022/03/24 03:24:10;;;;;;;16.13;10.93;;;;;;;;;;5047463;28;20237;-81
2022/03/24 03:26:38;;;;;;;17.63;10.73;;;;;;;;;;5046698;28;20408;-81
2022/03/24 03:29:07;;;;;;;18.37;12.00;;;;;;;;;;5047505;28;20293;-81
2022/03/24 03:31:34;;;;;;;16.17;11.10;;;;;;;;;;5047140;28;20627;-82
2022/03/24 03:34:02;;;;;;;19.13;12.23;;;;;;;;;;5046656;28;20219;-81
2022/03/24 03:36:30;;;;;;;18.27;11.57;;;;;;;;;;5044968;28;20226;-81
2022/03/24 03:38:57;;;;;;;18.67;11.23;;;;;;;;;;5044584;28;20225;-81
2022/03/24 03:41:26;;;;;;;16.30;10.70;;;;;;;;;;5044235;28;20246;-81
2022/03/24 03:43:54;;;;;;;17.37;11.30;;;;;;;;;;5043980;28;20231;-81
2022/03/24 03:46:22;;;;;;;20.37;10.97;;;;;;;;;;5043282;28;20249;-81
2022/03/24 03:48:49;;;;;;;19.90;11.23;;;;;;;;;;5044172;28;20218;-81
2022/03/24 03:51:17;;;;;;;16.40;11.77;;;;;;;;;;5044543;28;20245;-81
2022/03/24 03:53:44;;;;;;;15.73;11.37;;;;;;;;;;5044230;28;20207;-81
2022/03/24 03:56:12;;;;;;;18.07;10.87;;;;;;;;;;5043977;28;20249;-81
2022/03/24 03:58:40;;;;;;;18.27;12.00;;;;;;;;;;5044800;28;20217;-81
2022/03/24 04:01:08;;;;;;;15.63;11.37;;;;;;;;;;5048098;28;20239;-81
2022/03/24 04:03:39;;;;;;;17.00;11.77;;;;;;;;;;5048263;28;20598;-81
2022/03/24 04:06:09;;;;;;;16.97;10.97;;;;;;;;;;5047884;28;20666;-81
2022/03/24 04:08:36;;;;;;;17.03;11.27;;;;;;;;;;5048572;28;20240;-81
2022/03/24 04:11:03;;;;;;;15.17;10.67;;;;;;;;;;5047588;28;20237;-81
2022/03/24 04:13:31;;;;;;;16.70;11.10;;;;;;;;;;5047611;28;20220;-81
2022/03/24 04:15:58;;;;;;;17.00;11.33;;;;;;;;;;5047508;28;20233;-81
2022/03/24 04:18:25;;;;;;;15.43;11.13;;;;;;;;;;5047964;28;20214;-81
2022/03/24 04:20:54;;;;;;;17.23;11.53;;;;;;;;;;5046954;28;20259;-80
2022/03/24 04:23:21;;;;;;;15.83;10.43;;;;;;;;;;5048260;28;20236;-81
2022/03/24 04:25:48;;;;;;;14.60;11.07;;;;;;;;;;5047320;28;20298;-81
2022/03/24 04:28:18;;;;;;;15.53;10.57;;;;;;;;;;5047466;28;20234;-81
2022/03/24 04:30:49;;;;;;;16.10;11.07;;;;;;;;;;5046390;28;20287;-81
2022/03/24 04:33:16;;;;;;;14.43;10.83;;;;;;;;;;5047270;28;20241;-81
2022/03/24 04:35:44;;;;;;;23.23;10.80;;;;;;;;;;5047083;28;20253;-81
2022/03/24 04:38:14;;;;;;;18.23;10.17;;;;;;;;;;5047532;28;20221;-81
2022/03/24 04:40:41;;;;;;;19.47;10.70;;;;;;;;;;5047884;28;20234;-81
2022/03/24 04:43:08;;;;;;;16.53;10.73;;;;;;;;;;5048076;28;20212;-80
2022/03/24 04:45:35;;;;;;;16.97;11.87;;;;;;;;;;5046940;28;20239;-81
2022/03/24 04:48:03;;;;;;;17.67;11.17;;;;;;;;;;5046244;28;20231;-82
2022/03/24 04:50:31;;;;;;;17.37;11.67;;;;;;;;;;5047442;28;20232;-81
2022/03/24 04:52:58;;;;;;;14.37;10.70;;;;;;;;;;5047310;28;20222;-81
2022/03/24 04:55:26;;;;;;;20.27;11.60;;;;;;;;;;5047081;28;20240;-81
2022/03/24 04:57:53;;;;;;;20.50;12.67;;;;;;;;;;5046916;28;20264;-81
2022/03/24 05:00:20;;;;;;;16.27;11.67;;;;;;;;;;5046133;28;20279;-81
2022/03/24 05:02:48;;;;;;;17.90;11.57;;;;;;;;;;5046845;28;20210;-81
2022/03/24 05:05:16;;;;;;;19.93;12.17;;;;;;;;;;5046786;28;20229;-81
2022/03/24 05:07:43;;;;;;;18.23;11.53;;;;;;;;;;5046277;28;20725;-81
2022/03/24 05:10:10;;;;;;;16.00;11.73;;;;;;;;;;5036489;28;20208;-82
2022/03/24 05:12:40;;;;;;;19.70;12.37;;;;;;;;;;5036993;28;20213;-82
2022/03/24 05:15:09;;;;;;;16.63;11.47;;;;;;;;;;5037891;28;20268;-83
2022/03/24 05:17:36;;;;;;;19.40;12.27;;;;;;;;;;5040497;28;20217;-83
2022/03/24 05:20:03;;;;;;;20.33;11.80;;;;;;;;;;5041994;28;20266;-84
2022/03/24 05:22:30;;;;;;;16.40;11.43;;;;;;;;;;5040688;28;20206;-84
2022/03/24 05:24:57;;;;;;;22.43;12.33;;;;;;;;;;5041074;28;20233;-83
2022/03/24 05:27:24;;;;;;;18.50;11.70;;;;;;;;;;5042442;28;20601;-82
2022/03/24 05:29:53;;;;;;;19.37;12.37;;;;;;;;;;5043096;28;20232;-82
2022/03/24 05:32:20;;;;;;;20.17;12.03;;;;;;;;;;5042307;28;20239;-82
2022/03/24 05:34:48;;;;;;;17.87;12.07;;;;;;;;;;5044466;28;20231;-82
2022/03/24 05:37:15;;;;;;;18.63;11.33;;;;;;;;;;5041721;28;20229;-83
2022/03/24 05:39:43;;;;;;;15.97;10.80;;;;;;;;;;5042839;28;20245;-83
2022/03/24 05:42:10;;;;;;;22.27;10.97;;;;;;;;;;5043354;28;20238;-83
2022/03/24 05:44:37;;;;;;;16.73;11.00;;;;;;;;;;5045502;28;20236;-83
2022/03/24 05:47:06;;;;;;;30.60;10.97;;;;;;;;;;5044878;28;20237;-83
2022/03/24 05:49:35;;;;;;;18.27;12.00;;;;;;;;;;5046628;28;20626;-82
2022/03/24 05:52:02;;;;;;;19.23;11.30;;;;;;;;;;5046222;28;20618;-82
2022/03/24 05:54:29;;;;;;;20.43;11.37;;;;;;;;;;5046281;28;20233;-82
2022/03/24 05:56:57;;;;;;;16.07;11.20;;;;;;;;;;5044685;28;20237;-82
2022/03/24 05:59:24;;;;;;;21.37;12.87;;;;;;;;;;5045255;28;20217;-82
2022/03/24 06:01:51;;;;;;;17.27;12.83;;;;;;;;;;5045345;28;20246;-82
2022/03/24 06:04:20;;;;;;;17.97;11.70;;;;;;;;;;5045909;28;20297;-83
2022/03/24 06:06:47;;;;;;;19.20;12.10;;;;;;;;;;5045821;28;20247;-82
2022/03/24 06:09:14;;;;;;;19.37;12.67;;;;;;;;;;5047242;28;20223;-81
2022/03/24 06:11:42;;;;;;;23.07;13.43;;;;;;;;;;5041427;28;20723;-84
2022/03/24 06:14:10;;;;;;;23.97;13.80;;;;;;;;;;5048395;28;20228;-82
2022/03/24 06:16:38;;;;;;;23.07;13.67;;;;;;;;;;5045655;28;20248;-82
2022/03/24 06:19:05;;;;;;;19.73;13.13;;;;;;;;;;5048147;28;20254;-82
2022/03/24 06:21:33;;;;;;;20.40;14.03;;;;;;;;;;5048013;28;20240;-82
2022/03/24 06:24:00;;;;;;;21.77;13.33;;;;;;;;;;5050832;28;20237;-82
2022/03/24 06:26:29;;;;;;;25.40;13.30;;;;;;;;;;5046343;28;20271;-82
2022/03/24 06:28:56;;;;;;;18.67;12.97;;;;;;;;;;5046959;28;20602;-82
2022/03/24 06:31:23;;;;;;;23.67;14.27;;;;;;;;;;5045796;28;20237;-82
2022/03/24 06:33:50;;;;;;;22.60;14.83;;;;;;;;;;5046033;28;20236;-81
2022/03/24 06:36:17;;;;;;;19.10;14.13;;;;;;;;;;5048357;28;20248;-81
2022/03/24 06:38:45;;;;;;;22.07;14.37;;;;;;;;;;5048615;28;20214;-81
2022/03/24 06:41:14;;;;;;;22.47;14.20;;;;;;;;;;5049043;28;20244;-81
2022/03/24 06:43:41;;;;;;;30.07;14.57;;;;;;;;;;5043923;28;20268;-81
2022/03/24 06:46:09;;;;;;;25.67;13.40;;;;;;;;;;5048119;28;20240;-83
2022/03/24 06:48:36;;;;;;;24.10;14.37;;;;;;;;;;5048948;28;20260;-81
2022/03/24 06:51:04;;;;;;;22.67;14.23;;;;;;;;;;5049871;28;20239;-82
2022/03/24 06:53:31;;;;;;;26.57;14.70;;;;;;;;;;5050061;28;20214;-81
2022/03/24 06:56:00;;;;;;;25.87;15.93;;;;;;;;;;5056769;28;20222;-81
2022/03/24 06:58:27;;;;;;;31.57;17.00;;;;;;;;;;5041443;28;20210;-81
2022/03/24 07:00:54;;;;;;;27.70;14.77;;;;;;;;;;5034459;28;20233;-81
2022/03/24 07:03:21;;;;;;;21.73;14.30;;;;;;;;;;5041058;28;20205;-82
2022/03/24 07:05:48;;;;;;;23.70;15.03;;;;;;;;;;5040184;28;20305;-81
2022/03/24 07:08:16;;;;;;;22.27;14.93;;;;;;;;;;5039802;28;20237;-82
2022/03/24 07:10:43;;;;;;;24.67;15.17;;;;;;;;;;5037957;28;20317;-83
2022/03/24 07:13:11;;;;;;;25.30;15.67;;;;;;;;;;5040166;28;20218;-83
2022/03/24 07:15:38;;;;;;;22.27;14.43;;;;;;;;;;5040663;28;20244;-82
2022/03/24 07:18:05;;;;;;;26.60;15.80;;;;;;;;;;5041431;28;20229;-82
2022/03/24 07:20:34;;;;;;;23.47;15.43;;;;;;;;;;5041118;28;20230;-82
2022/03/24 07:23:03;;;;;;;22.47;14.10;;;;;;;;;;5041158;28;20234;-80
2022/03/24 07:25:30;;;;;;;25.77;16.47;;;;;;;;;;5041670;28;20245;-81
2022/03/24 07:27:57;;;;;;;26.60;16.00;;;;;;;;;;5041107;28;20265;-81
2022/03/24 07:30:26;;;;;;;26.67;14.47;;;;;;;;;;5032989;28;20234;-81
2022/03/24 07:32:55;;;;;;;31.43;15.13;;;;;;;;;;5040041;28;20238;-82
2022/03/24 07:35:24;;;;;;;21.20;14.47;;;;;;;;;;5039745;28;20258;-82
2022/03/24 07:37:51;;;;;;;27.20;15.87;;;;;;;;;;5042291;28;20199;-82
2022/03/24 07:40:21;;;;;;;23.53;15.03;;;;;;;;;;5055300;28;20199;-82
2022/03/24 07:42:49;;;;;;;26.43;16.77;;;;;;;;;;5055686;28;20202;-82
2022/03/24 07:45:16;;;;;;;24.60;16.77;;;;;;;;;;5055048;28;20202;-82
2022/03/24 07:47:58;;;;;;;25.97;15.87;;;;;;;;;;5054049;28;20207;-82
2022/03/24 07:50:26;;;;;;;21.53;15.40;;;;;;;;;;5034729;28;20249;-82
2022/03/24 07:52:53;;;;;;;21.93;15.57;;;;;;;;;;5035629;28;20196;-82
2022/03/24 07:55:21;;;;;;;20.70;15.07;;;;;;;;;;5034809;28;20241;-82
2022/03/24 07:57:48;;;;;;;23.60;15.63;;;;;;;;;;5038709;28;20222;-81
2022/03/24 08:00:15;;;;;;;29.70;15.63;;;;;;;;;;5044695;28;20212;-82
2022/03/24 08:02:44;;;;;;;23.10;15.47;;;;;;;;;;5041442;28;20224;-82
2022/03/24 08:05:11;;;;;;;25.47;14.77;;;;;;;;;;5036693;28;20226;-82
2022/03/24 08:07:39;;;;;;;19.87;13.77;;;;;;;;;;5039755;28;20231;-82
2022/03/24 08:10:08;;;;;;;23.23;14.37;;;;;;;;;;5038138;28;20300;-82
2022/03/24 08:12:35;;;;;;;21.37;13.53;;;;;;;;;;5041423;28;20210;-82
2022/03/24 08:15:02;;;;;;;19.87;12.67;;;;;;;;;;5037025;28;20229;-82
2022/03/24 08:17:29;;;;;;;61.80;30.60;;;;;;;;;;5037263;28;20246;-82
2022/03/24 08:19:56;;;;;;;19.87;13.47;;;;;;;;;;5037035;28;20631;-83
2022/03/24 08:22:23;;;;;;;22.30;13.77;;;;;;;;;;5036486;28;20733;-83
2022/03/24 08:24:51;;;;;;;15.57;12.07;;;;;;;;;;5036702;28;20249;-83
2022/03/24 08:27:18;;;;;;;18.07;13.17;;;;;;;;;;5035063;28;20246;-83
2022/03/24 08:29:45;;;;;;;24.53;13.10;;;;;;;;;;5034925;28;20228;-83
2022/03/24 08:32:13;;;;;;;18.60;12.57;;;;;;;;;;5034836;28;20235;-83
2022/03/24 08:34:40;;;;;;;24.20;12.63;;;;;;;;;;5036388;28;20258;-83
2022/03/24 08:37:07;;;;;;;17.83;11.50;;;;;;;;;;5039697;28;20242;-83
2022/03/24 08:39:34;;;;;;;18.73;12.10;;;;;;;;;;5035947;28;20613;-83
2022/03/24 08:42:03;;;;;;;25.33;12.03;;;;;;;;;;5031890;28;20238;-82
2022/03/24 08:44:30;;;;;;;19.93;12.20;;;;;;;;;;5032996;28;20262;-82
2022/03/24 08:46:57;;;;;;;21.20;12.47;;;;;;;;;;5037686;28;20654;-82
2022/03/24 08:49:24;;;;;;;19.40;12.10;;;;;;;;;;5038464;28;20230;-81
2022/03/24 08:51:51;;;;;;;15.80;11.47;;;;;;;;;;5041307;28;20242;-82
2022/03/24 08:54:18;;;;;;;16.00;11.47;;;;;;;;;;5038632;28;20239;-83
2022/03/24 08:56:45;;;;;;;17.77;11.10;;;;;;;;;;5037249;28;20241;-83
2022/03/24 08:59:13;;;;;;;16.07;10.00;;;;;;;;;;5038344;28;20202;-83
2022/03/24 09:01:41;;;;;;;14.83;9.67;;;;;;;;;;5031788;28;20247;-83
2022/03/24 09:04:08;;;;;;;22.47;11.47;;;;;;;;;;5036233;28;20223;-82
2022/03/24 09:06:35;;;;;;;15.17;11.03;;;;;;;;;;5037561;28;20279;-82
2022/03/24 09:09:02;;;;;;;15.57;10.00;;;;;;;;;;5037398;28;20238;-82
2022/03/24 09:11:29;;;;;;;15.03;10.53;;;;;;;;;;5036971;28;20321;-82
2022/03/24 09:13:56;;;;;;;15.87;10.37;;;;;;;;;;5036834;28;20254;-84
2022/03/24 09:16:25;;;;;;;14.97;10.17;;;;;;;;;;5036099;28;20257;-84
2022/03/24 09:18:52;;;;;;;17.60;11.17;;;;;;;;;;5036553;28;20198;-83
2022/03/24 09:21:19;;;;;;;15.60;10.60;;;;;;;;;;5037170;28;20248;-84
2022/03/24 09:23:46;;;;;;;14.67;11.07;;;;;;;;;;5037353;28;20593;-84
2022/03/24 09:26:13;;;;;;;16.03;10.97;;;;;;;;;;5049182;28;20223;-84
2022/03/24 09:28:41;;;;;;;14.10;10.00;;;;;;;;;;5039883;28;20231;-84
2022/03/24 09:31:08;;;;;;;16.33;11.47;;;;;;;;;;5036069;28;20257;-84
2022/03/24 09:33:36;;;;;;;14.87;10.60;;;;;;;;;;5035598;28;20203;-83
2022/03/24 09:36:04;;;;;;;16.43;11.00;;;;;;;;;;5028074;28;20239;-83
2022/03/24 09:38:31;;;;;;;18.27;10.57;;;;;;;;;;5016985;28;20266;-83
2022/03/24 09:40:58;;;;;;;16.13;11.33;;;;;;;;;;5028870;28;20235;-84
2022/03/24 09:43:26;;;;;;;15.87;11.33;;;;;;;;;;5036252;28;20205;-83
2022/03/24 09:45:54;;;;;;;14.87;11.90;;;;;;;;;;5035348;28;20662;-84
2022/03/24 09:48:21;;;;;;;15.77;11.33;;;;;;;;;;5034930;28;20725;-84
2022/03/24 09:50:50;;;;;;;20.40;11.43;;;;;;;;;;5034457;28;20257;-84
2022/03/24 09:53:18;;;;;;;17.40;11.53;;;;;;;;;;5034118;28;20584;-83
2022/03/24 09:55:46;;;;;;;18.77;11.37;;;;;;;;;;5034848;28;20257;-83
2022/03/24 09:58:13;;;;;;;15.33;11.70;;;;;;;;;;5034647;28;20215;-83
2022/03/24 10:00:40;;;;;;;15.63;11.40;;;;;;;;;;5034982;28;20237;-83
2022/03/24 10:03:09;;;;;;;18.30;12.23;;;;;;;;;;5035468;28;20737;-83
2022/03/24 10:05:36;;;;;;;17.67;12.40;;;;;;;;;;5035266;28;20622;-83
2022/03/24 10:08:06;;;;;;;14.73;11.50;;;;;;;;;;5035213;28;20210;-84
2022/03/24 10:10:36;;;;;;;21.27;11.67;;;;;;;;;;5034789;28;20239;-84
2022/03/24 10:13:04;;;;;;;15.95;12.32;;;;;;;;;;5034978;28;20229;-83
2022/03/24 10:15:31;;;;;;;16.50;12.50;;;;;;;;;;5034552;28;20624;-84
2022/03/24 10:18:00;;;;;;;17.10;12.45;;;;;;;;;;5035050;28;20206;-83
2022/03/24 10:20:29;;;;;;;16.85;12.35;;;;;;;;;;5033979;28;20695;-83
2022/03/24 10:22:57;;;;;;;17.05;12.80;;;;;;;;;;5041134;28;20234;-83
2022/03/24 10:25:26;;;;;;;16.67;13.02;;;;;;;;;;5034895;28;20257;-83
2022/03/24 10:28:03;;;;;;;16.77;12.98;;;;;;;;;;5036053;28;20191;-83
2022/03/24 10:30:30;;;;;;;18.30;13.15;;;;;;;;;;5035539;28;20222;-84
2022/03/24 10:32:57;;;;;;;19.08;12.70;;;;;;;;;;5034827;28;20210;-83
2022/03/24 10:35:25;;;;;;;24.55;14.70;;;;;;;;;;5033403;28;20614;-83
2022/03/24 10:37:53;;;;;;;16.55;13.07;;;;;;;;;;5033911;28;20221;-84
2022/03/24 10:40:21;;;;;;;16.75;13.63;;;;;;;;;;5033099;28;20234;-84
2022/03/24 10:42:55;;;;;;;17.38;13.82;;;;;;;;;;5033615;28;20211;-84
2022/03/24 10:45:23;;;;;;;18.73;14.27;;;;;;;;;;5033325;28;20296;-83
2022/03/24 10:47:51;;;;;;;17.25;13.73;;;;;;;;;;5033479;28;20558;-84
2022/03/24 10:50:26;;;;;;;17.55;13.90;;;;;;;;;;5032739;28;20219;-84
2022/03/24 10:52:54;;;;;;;17.13;13.70;;;;;;;;;;5033812;28;20210;-84
2022/03/24 10:55:29;;;;;;;20.35;14.88;;;;;;;;;;5033146;28;20278;-84
2022/03/24 10:57:58;;;;;;;14.07;12.10;;;;;;;;;;5033840;28;20190;-84
2022/03/24 11:00:25;;;;;;;19.02;15.05;;;;;;;;;;5032887;28;20226;-84
2022/03/24 11:02:52;;;;;;;17.67;14.35;;;;;;;;;;5033560;28;20203;-84
2022/03/24 11:05:19;;;;;;;20.60;14.63;;;;;;;;;;5033872;28;20226;-84
2022/03/24 11:07:52;;;;;;;19.85;15.60;;;;;;;;;;5053049;28;20275;-84
2022/03/24 11:10:20;;;;;;;19.95;14.55;;;;;;;;;;5051315;28;20242;-84
2022/03/24 11:12:49;;;;;;;17.60;14.52;;;;;;;;;;5053600;28;20209;-84
2022/03/24 11:15:19;;;;;;;17.55;13.80;;;;;;;;;;5052525;28;20225;-84
2022/03/24 11:17:47;;;;;;;20.38;15.23;;;;;;;;;;5036102;28;20198;-85
2022/03/24 11:20:16;;;;;;;18.13;15.32;;;;;;;;;;5032294;28;20205;-84
2022/03/24 11:22:44;;;;;;;17.42;14.18;;;;;;;;;;5033267;28;20206;-84
2022/03/24 11:25:12;;;;;;;17.35;14.25;;;;;;;;;;5032366;28;20234;-85
2022/03/24 11:27:39;;;;;;;18.00;14.57;;;;;;;;;;5033847;28;20206;-84
2022/03/24 11:30:07;;;;;;;20.00;14.85;;;;;;;;;;5032574;28;20229;-85
2022/03/24 11:32:37;;;;;;;18.58;14.85;;;;;;;;;;5033423;28;20211;-85
2022/03/24 11:35:04;;;;;;;19.63;15.68;;;;;;;;;;5032667;28;20227;-84
2022/03/24 11:37:31;;;;;;;16.80;13.48;;;;;;;;;;5018354;28;20207;-82
2022/03/24 11:40:06;;;;;;;19.13;14.57;;;;;;;;;;5029136;28;20203;-83
2022/03/24 11:42:34;;;;;;;18.52;14.85;;;;;;;;;;5033135;28;20230;-84
2022/03/24 11:45:03;;;;;;;18.95;14.63;;;;;;;;;;5032257;28;20234;-83
2022/03/24 11:47:35;;;;;;;18.38;15.40;;;;;;;;;;5031571;28;20242;-83
2022/03/24 11:50:11;;;;;;;18.33;14.70;;;;;;;;;;5034642;28;20215;-84
2022/03/24 11:52:38;;;;;;;19.88;14.63;;;;;;;;;;5032374;28;20252;-84
2022/03/24 11:55:13;;;;;;;20.48;15.45;;;;;;;;;;5032038;28;20236;-84
2022/03/24 11:57:41;;;;;;;21.85;15.45;;;;;;;;;;5032397;28;20194;-83
2022/03/24 12:00:27;;;;;;;21.95;15.00;;;;;;;;;;5031402;28;20199;-83
2022/03/24 12:02:54;;;;;;;21.33;16.38;;;;;;;;;;5031549;28;20210;-84
2022/03/24 12:05:22;;;;;;;19.88;15.63;;;;;;;;;;5031510;28;20232;-82
2022/03/24 12:07:49;;;;;;;17.63;14.20;;;;;;;;;;5031140;28;20210;-83
2022/03/24 12:10:30;;;;;;;18.77;13.60;;;;;;;;;;5031333;28;20230;-83
2022/03/24 12:13:12;;;;;;;16.92;13.30;;;;;;;;;;5031715;28;20423;-83
2022/03/24 12:15:39;;;;;;;19.20;14.15;;;;;;;;;;5031876;28;20241;-84
2022/03/24 12:18:07;;;;;;;17.08;13.57;;;;;;;;;;5032459;28;20203;-82
2022/03/24 12:20:41;;;;;;;16.73;13.52;;;;;;;;;;5033835;28;20237;-83
2022/03/24 12:23:09;;;;;;;19.27;13.00;;;;;;;;;;5036958;28;20631;-83
2022/03/24 12:25:36;;;;;;;18.73;13.10;;;;;;;;;;5035709;28;20265;-82
2022/03/24 12:28:15;;;;;;;18.77;13.65;;;;;;;;;;5036380;28;20202;-84
2022/03/24 12:30:43;;;;;;;14.07;12.30;;;;;;;;;;5035282;28;20238;-83
2022/03/24 12:33:12;;;;;;;18.30;13.82;;;;;;;;;;5042332;28;20353;-83
2022/03/24 12:35:40;;;;;;;20.17;14.13;;;;;;;;;;5035997;28;20272;-83
2022/03/24 12:38:21;;;;;;;13.93;12.27;;;;;;;;;;5036542;28;20246;-84
2022/03/24 12:41:13;;;;;;;13.75;12.00;;;;;;;;;;5034940;28;20308;-84
2022/03/24 12:43:40;;;;;;;16.00;12.07;;;;;;;;;;5016658;28;20206;-84
2022/03/24 12:46:21;;;;;;;12.48;10.75;;;;;;;;;;5035633;28;20258;-84
2022/03/24 12:48:48;;;;;;;16.75;11.35;;;;;;;;;;5035764;28;20210;-84
2022/03/24 12:51:19;;;;;;;15.85;11.77;;;;;;;;;;5035206;28;20231;-83
2022/03/24 12:53:55;;;;;;;15.48;11.82;;;;;;;;;;5035705;28;20217;-83
2022/03/24 12:56:23;;;;;;;16.42;12.48;;;;;;;;;;5035219;28;20241;-83
2022/03/24 12:58:54;;;;;;;17.00;13.25;;;;;;;;;;5035661;28;20222;-84
2022/03/24 13:01:21;;;;;;;16.95;12.88;;;;;;;;;;5034779;28;20703;-84
2022/03/24 13:03:55;;;;;;;20.90;14.90;;;;;;;;;;5035505;28;20253;-84
2022/03/24 13:06:22;;;;;;;17.65;13.45;;;;;;;;;;5035230;28;20249;-83
2022/03/24 13:09:04;;;;;;;16.63;12.75;;;;;;;;;;5035479;28;20269;-83
2022/03/24 13:11:38;;;;;;;17.27;12.07;;;;;;;;;;5033881;28;20246;-85
2022/03/24 13:14:10;;;;;;;16.88;13.23;;;;;;;;;;5035958;28;20234;-85
2022/03/24 13:16:37;;;;;;;15.70;13.10;;;;;;;;;;5036414;28;21033;-82
2022/03/24 13:19:04;;;;;;;15.43;13.02;;;;;;;;;;5037290;28;20202;-82
2022/03/24 13:21:31;;;;;;;16.50;13.27;;;;;;;;;;5034316;28;20234;-82
2022/03/24 13:23:58;;;;;;;17.08;12.60;;;;;;;;;;5037133;28;20239;-82
2022/03/24 13:26:25;;;;;;;16.38;11.98;;;;;;;;;;5036008;28;20234;-84
2022/03/24 13:28:56;;;;;;;15.98;12.38;;;;;;;;;;5035034;28;20628;-83
2022/03/24 13:31:29;;;;;;;15.43;11.85;;;;;;;;;;5033518;28;20889;-82
2022/03/24 13:33:57;;;;;;;16.40;12.55;;;;;;;;;;5035221;28;20274;-83
2022/03/24 13:36:24;;;;;;;15.25;12.75;;;;;;;;;;5034030;28;20222;-82
2022/03/24 13:38:52;;;;;;;16.85;12.50;;;;;;;;;;5034662;28;20222;-82
2022/03/24 13:41:20;;;;;;;19.42;12.63;;;;;;;;;;5033919;28;20760;-82
2022/03/24 13:43:47;;;;;;;16.13;12.23;;;;;;;;;;5034678;28;20210;-82
2022/03/24 13:46:17;;;;;;;14.98;11.32;;;;;;;;;;5034184;28;20241;-83
2022/03/24 13:48:51;;;;;;;14.20;11.88;;;;;;;;;;5029223;28;20206;-83
2022/03/24 13:51:21;;;;;;;15.80;13.20;;;;;;;;;;5034259;28;20291;-82
2022/03/24 13:53:48;;;;;;;16.92;12.00;;;;;;;;;;5031090;28;20248;-83
2022/03/24 13:56:18;;;;;;;17.25;13.82;;;;;;;;;;5033935;28;20227;-83
2022/03/24 13:58:46;;;;;;;14.63;12.05;;;;;;;;;;5034105;28;20211;-83
2022/03/24 14:01:14;;;;;;;17.20;13.57;;;;;;;;;;5033696;28;20603;-83
2022/03/24 14:03:44;;;;;;;17.02;12.82;;;;;;;;;;5034994;28;20195;-81
2022/03/24 14:06:13;;;;;;;15.68;12.95;;;;;;;;;;5034080;28;20246;-82
2022/03/24 14:08:43;;;;;;;15.85;12.57;;;;;;;;;;5035046;28;20214;-81
2022/03/24 14:11:11;;;;;;;19.30;13.82;;;;;;;;;;5034252;28;20605;-82
2022/03/24 14:13:40;;;;;;;15.63;12.65;;;;;;;;;;5033927;28;20202;-82
2022/03/24 14:16:09;;;;;;;16.00;12.23;;;;;;;;;;5033635;28;20249;-82
2022/03/24 14:18:36;;;;;;;13.65;11.32;;;;;;;;;;5033994;28;20218;-82
2022/03/24 14:21:05;;;;;;;13.88;12.38;;;;;;;;;;5033590;28;20234;-82
2022/03/24 14:23:33;;;;;;;14.50;12.38;;;;;;;;;;5033758;28;20213;-82
2022/03/24 14:26:01;;;;;;;16.02;12.02;;;;;;;;;;5034133;28;20230;-82